createdAt,value
2023-05-14T00:00:02.430Z,99541.03
2023-05-14T00:02:28.879Z,99521.16
2023-05-14T00:04:55.240Z,99538.50
2023-05-14T00:07:21.592Z,99542.50
2023-05-14T00:09:47.898Z,99530.28
2023-05-14T00:12:14.358Z,99542.66
2023-05-14T00:14:40.729Z,99537.69
2023-05-14T00:17:07.203Z,99530.59
2023-05-14T00:19:33.572Z,99539.25
2023-05-14T00:21:59.888Z,99534.28
2023-05-14T00:24:26.397Z,99533.97
2023-05-14T00:26:52.784Z,99510.97
2023-05-14T00:29:19.331Z,99518.66
2023-05-14T00:31:45.820Z,99520.16
2023-05-14T00:34:12.204Z,99533.03
2023-05-14T00:36:38.495Z,99537.69
2023-05-14T00:39:04.920Z,99508.41
2023-05-14T00:41:31.276Z,99532.31
2023-05-14T00:43:57.634Z,99531.34
2023-05-14T00:46:24.032Z,99523.72
2023-05-14T00:48:50.560Z,99530.59
2023-05-14T00:51:17.930Z,99516.88
2023-05-14T00:53:45.377Z,99523.44
2023-05-14T00:56:11.904Z,99532.53
2023-05-14T00:58:38.199Z,99506.47
2023-05-14T01:01:04.709Z,99523.56
2023-05-14T01:03:32.034Z,99508.91
2023-05-14T01:06:22.131Z,99516.59
2023-05-14T01:09:05.716Z,99503.94
2023-05-14T01:11:48.314Z,99507.19
2023-05-14T01:14:21.783Z,99527.06
2023-05-14T01:16:56.680Z,99525.34
2023-05-14T01:19:32.331Z,99523.16
2023-05-14T01:21:58.620Z,99523.28
2023-05-14T01:24:24.913Z,99514.50
2023-05-14T01:26:51.341Z,99509.22
2023-05-14T01:29:22.950Z,99506.25
2023-05-14T01:31:51.164Z,99509.53
2023-05-14T01:34:22.750Z,99506.06
2023-05-14T01:36:51.346Z,99503.22
2023-05-14T01:39:19.077Z,99496.34
2023-05-14T01:41:46.485Z,99508.19
2023-05-14T01:44:13.095Z,99495.19
2023-05-14T01:46:39.538Z,99505.75
2023-05-14T01:49:06.050Z,99495.91
2023-05-14T01:51:32.685Z,99491.06
2023-05-14T01:53:59.011Z,99498.88
2023-05-14T01:56:25.427Z,99477.78
2023-05-14T01:58:51.727Z,99501.91
2023-05-14T02:01:18.160Z,99493.59
2023-05-14T02:03:44.672Z,99491.06
2023-05-14T02:06:11.109Z,99493.19
2023-05-14T02:08:37.482Z,99482.31
2023-05-14T02:11:03.774Z,99489.03
2023-05-14T02:13:30.156Z,99481.44
2023-05-14T02:15:58.034Z,99485.38
2023-05-14T02:18:24.548Z,99482.63
2023-05-14T02:20:50.964Z,99480.41
2023-05-14T02:23:17.263Z,99467.22
2023-05-14T02:25:44.612Z,99448.75
2023-05-14T02:28:10.954Z,99477.34
2023-05-14T02:30:37.298Z,99480.31
2023-05-14T02:33:03.721Z,99485.06
2023-05-14T02:35:30.157Z,99474.94
2023-05-14T02:37:56.560Z,99485.16
2023-05-14T02:40:23.103Z,99464.78
2023-05-14T02:42:49.587Z,99477.56
2023-05-14T02:45:15.930Z,99471.75
2023-05-14T02:47:42.327Z,99470.16
2023-05-14T02:50:09.125Z,99480.31
2023-05-14T02:52:35.573Z,99468.16
2023-05-14T02:55:02.709Z,99477.56
2023-05-14T02:57:28.992Z,99470.91
2023-05-14T02:59:55.438Z,99476.84
2023-05-14T03:02:22.178Z,99477.66
2023-05-14T03:04:49.072Z,99478.59
2023-05-14T03:07:15.349Z,99472.50
2023-05-14T03:09:41.688Z,99461.94
2023-05-14T03:12:08.179Z,99472.59
2023-05-14T03:14:34.515Z,99464.78
2023-05-14T03:17:00.969Z,99460.66
2023-05-14T03:19:27.329Z,99456.47
2023-05-14T03:21:53.737Z,99462.06
2023-05-14T03:24:20.088Z,99463.00
2023-05-14T03:26:46.426Z,99457.09
2023-05-14T03:29:12.764Z,99470.69
2023-05-14T03:31:39.080Z,99462.38
2023-05-14T03:34:05.565Z,99465.53
2023-05-14T03:36:32.247Z,99473.44
2023-05-14T03:38:58.518Z,99461.84
2023-05-14T03:41:24.873Z,99462.66
2023-05-14T03:43:51.248Z,99467.63
2023-05-14T03:46:17.592Z,99465.19
2023-05-14T03:48:43.935Z,99460.34
2023-05-14T03:51:10.389Z,99467.22
2023-05-14T03:53:36.732Z,99458.13
2023-05-14T03:56:03.178Z,99471.19
2023-05-14T03:58:29.459Z,99461.84
2023-05-14T04:00:55.860Z,99467.13
2023-05-14T04:03:22.266Z,99460.97
2023-05-14T04:05:48.716Z,99466.03
2023-05-14T04:08:14.988Z,99461.25
2023-05-14T04:10:42.802Z,99459.59
2023-05-14T04:13:09.276Z,99469.16
2023-05-14T04:15:35.608Z,99460.63
2023-05-14T04:18:02.116Z,99458.63
2023-05-14T04:20:28.499Z,99462.75
2023-05-14T04:22:54.871Z,99460.63
2023-05-14T04:25:21.218Z,99444.41
2023-05-14T04:27:47.580Z,99456.28
2023-05-14T04:30:14.145Z,99467.50
2023-05-14T04:32:40.464Z,99464.78
2023-05-14T04:35:07.608Z,99461.16
2023-05-14T04:37:33.902Z,99467.84
2023-05-14T04:40:00.321Z,99462.78
2023-05-14T04:42:26.623Z,99459.22
2023-05-14T04:44:53.067Z,99465.31
2023-05-14T04:47:19.351Z,99452.44
2023-05-14T04:49:45.736Z,99470.97
2023-05-14T04:52:12.084Z,99454.63
2023-05-14T04:54:38.572Z,99461.19
2023-05-14T04:57:05.151Z,99462.78
2023-05-14T04:59:31.518Z,99455.06
2023-05-14T05:01:57.906Z,99458.44
2023-05-14T05:04:24.412Z,99459.94
2023-05-14T05:06:50.788Z,99459.41
2023-05-14T05:09:20.041Z,99460.88
2023-05-14T05:11:46.394Z,99468.78
2023-05-14T05:14:12.709Z,99450.28
2023-05-14T05:16:39.217Z,99463.28
2023-05-14T05:19:05.650Z,99469.19
2023-05-14T05:21:32.193Z,99462.06
2023-05-14T05:23:58.481Z,99469.03
2023-05-14T05:26:26.355Z,99464.91
2023-05-14T05:28:52.711Z,99461.72
2023-05-14T05:31:19.928Z,99468.66
2023-05-14T05:33:46.505Z,99461.94
2023-05-14T05:36:12.839Z,99453.25
2023-05-14T05:38:39.192Z,99453.81
2023-05-14T05:41:05.550Z,99448.56
2023-05-14T05:43:31.836Z,99456.88
2023-05-14T05:45:58.184Z,99456.69
2023-05-14T05:48:24.656Z,99449.91
2023-05-14T05:50:50.947Z,99452.25
2023-05-14T05:53:17.236Z,99444.66
2023-05-14T05:55:43.642Z,99446.56
2023-05-14T05:58:09.921Z,99443.19
2023-05-14T06:00:36.371Z,99421.78
2023-05-14T06:03:02.833Z,99432.31
2023-05-14T06:05:29.163Z,99440.41
2023-05-14T06:07:55.550Z,99431.53
2023-05-14T06:10:22.122Z,99427.34
2023-05-14T06:12:48.702Z,99436.72
2023-05-14T06:15:15.180Z,99428.53
2023-05-14T06:17:41.622Z,99430.28
2023-05-14T06:20:08.589Z,99431.38
2023-05-14T06:22:34.971Z,99436.53
2023-05-14T06:25:01.376Z,99441.25
2023-05-14T06:27:27.739Z,99438.44
2023-05-14T06:29:54.015Z,99437.38
2023-05-14T06:32:20.445Z,99440.00
2023-05-14T06:34:46.966Z,99441.84
2023-05-14T06:37:13.312Z,99440.41
2023-05-14T06:39:40.362Z,99441.50
2023-05-14T06:42:06.744Z,99427.41
2023-05-14T06:44:33.046Z,99438.19
2023-05-14T06:46:59.402Z,99417.50
2023-05-14T06:49:25.717Z,99415.59
2023-05-14T06:51:52.175Z,99427.91
2023-05-14T06:54:18.527Z,99428.72
2023-05-14T06:56:44.821Z,99416.53
2023-05-14T06:59:11.430Z,99412.41
2023-05-14T07:01:37.820Z,99419.28
2023-05-14T07:04:04.376Z,99412.16
2023-05-14T07:06:30.796Z,99419.03
2023-05-14T07:08:57.079Z,99411.94
2023-05-14T07:11:23.500Z,99398.44
2023-05-14T07:13:49.788Z,99407.47
2023-05-14T07:16:16.130Z,99400.50
2023-05-14T07:18:42.534Z,99406.09
2023-05-14T07:21:08.911Z,99405.34
2023-05-14T07:23:35.460Z,99396.81
2023-05-14T07:26:02.396Z,99405.22
2023-05-14T07:28:28.673Z,99387.66
2023-05-14T07:30:55.025Z,99391.75
2023-05-14T07:33:21.802Z,99386.69
2023-05-14T07:35:48.200Z,99391.22
2023-05-14T07:38:14.829Z,99382.50
2023-05-14T07:40:41.122Z,99376.97
2023-05-14T07:43:07.476Z,99375.38
2023-05-14T07:45:33.942Z,99371.03
2023-05-14T07:48:00.716Z,99360.75
2023-05-14T07:50:27.216Z,99369.56
2023-05-14T07:52:53.621Z,99363.56
2023-05-14T07:55:20.014Z,99358.69
2023-05-14T07:57:46.841Z,99356.13
2023-05-14T08:00:13.776Z,99359.22
2023-05-14T08:02:40.564Z,99363.41
2023-05-14T08:05:07.834Z,99352.63
2023-05-14T08:07:34.500Z,99350.81
2023-05-14T08:10:00.993Z,99347.94
2023-05-14T08:12:27.369Z,99349.38
2023-05-14T08:14:53.649Z,99332.16
2023-05-14T08:17:20.027Z,99327.72
2023-05-14T08:19:46.338Z,99322.34
2023-05-14T08:22:12.641Z,99326.78
2023-05-14T08:24:39.148Z,99326.72
2023-05-14T08:27:05.559Z,99321.56
2023-05-14T08:29:31.909Z,99326.22
2023-05-14T08:32:00.272Z,99331.75
2023-05-14T08:34:28.219Z,99319.53
2023-05-14T08:36:54.589Z,99317.66
2023-05-14T08:39:20.854Z,99307.44
2023-05-14T08:41:47.914Z,99313.25
2023-05-14T08:44:17.665Z,99304.59
2023-05-14T08:46:44.418Z,99314.88
2023-05-14T08:49:19.651Z,99305.97
2023-05-14T08:51:46.239Z,99315.25
2023-05-14T08:54:15.361Z,99299.59
2023-05-14T08:56:41.910Z,99295.03
2023-05-14T08:59:08.299Z,99293.94
2023-05-14T09:01:35.140Z,99298.53
2023-05-14T09:04:02.862Z,99284.00
2023-05-14T09:06:29.981Z,99294.59
2023-05-14T09:08:56.642Z,99297.34
2023-05-14T09:11:22.998Z,99298.16
2023-05-14T09:13:49.383Z,99280.66
2023-05-14T09:16:18.456Z,99282.03
2023-05-14T09:18:45.148Z,99287.38
2023-05-14T09:21:14.204Z,99287.00
2023-05-14T09:23:45.004Z,99284.78
2023-05-14T09:26:12.065Z,99279.22
2023-05-14T09:28:41.633Z,99284.63
2023-05-14T09:31:09.834Z,99274.50
2023-05-14T09:33:36.235Z,99276.50
2023-05-14T09:36:02.686Z,99276.19
2023-05-14T09:38:33.126Z,99274.25
2023-05-14T09:41:00.524Z,99262.72
2023-05-14T09:43:26.962Z,99276.00
2023-05-14T09:45:53.291Z,99270.31
2023-05-14T09:48:19.857Z,99272.03
2023-05-14T09:50:46.817Z,99273.38
2023-05-14T09:53:13.983Z,99262.16
2023-05-14T09:55:40.584Z,99263.75
2023-05-14T09:58:06.955Z,99265.16
2023-05-14T10:00:35.105Z,99252.63
2023-05-14T10:03:08.132Z,99258.28
2023-05-14T10:05:39.862Z,99254.47
2023-05-14T10:08:13.281Z,99256.06
2023-05-14T10:10:39.892Z,99243.66
2023-05-14T10:13:14.791Z,99254.28
2023-05-14T10:15:49.185Z,99243.97
2023-05-14T10:18:19.280Z,99247.28
2023-05-14T10:20:53.238Z,99239.53
2023-05-14T10:23:19.746Z,99224.78
2023-05-14T10:25:46.226Z,99220.88
2023-05-14T10:28:12.781Z,99232.09
2023-05-14T10:30:46.024Z,99220.50
2023-05-14T10:33:14.768Z,99227.53
2023-05-14T10:35:50.680Z,99226.13
2023-05-14T10:38:17.176Z,99224.72
2023-05-14T10:40:43.978Z,99224.91
2023-05-14T10:43:10.936Z,99227.97
2023-05-14T10:45:37.354Z,99223.69
2023-05-14T10:48:03.853Z,99210.19
2023-05-14T10:50:30.390Z,99217.19
2023-05-14T10:52:57.428Z,99210.94
2023-05-14T10:55:25.119Z,99214.13
2023-05-14T10:57:52.398Z,99219.59
2023-05-14T11:00:18.828Z,99216.00
2023-05-14T11:02:45.745Z,99224.31
2023-05-14T11:05:15.433Z,99216.91
2023-05-14T11:07:47.139Z,99203.66
2023-05-14T11:10:15.442Z,99211.03
2023-05-14T11:12:45.734Z,99211.41
2023-05-14T11:15:14.633Z,99197.28
2023-05-14T11:17:42.424Z,99199.44
2023-05-14T11:20:10.352Z,99217.81
2023-05-14T11:22:38.221Z,99204.47
2023-05-14T11:25:05.598Z,99210.13
2023-05-14T11:27:34.281Z,99203.59
2023-05-14T11:30:01.090Z,99181.72
2023-05-14T11:32:27.853Z,99198.94
2023-05-14T11:34:54.333Z,99185.41
2023-05-14T11:37:20.699Z,99168.81
2023-05-14T11:39:51.560Z,99188.03
2023-05-14T11:42:18.829Z,99177.69
2023-05-14T11:44:49.347Z,99186.25
2023-05-14T11:47:17.489Z,99189.41
2023-05-14T11:49:44.473Z,99184.75
2023-05-14T11:52:11.820Z,99170.53
2023-05-14T11:54:38.493Z,99170.00
2023-05-14T11:57:10.728Z,99171.16
2023-05-14T11:59:37.230Z,99170.66
2023-05-14T12:02:05.354Z,99158.63
2023-05-14T12:04:32.033Z,99153.59
2023-05-14T12:07:00.052Z,99161.94
2023-05-14T12:09:26.606Z,99162.63
2023-05-14T12:11:53.069Z,99149.66
2023-05-14T12:14:22.983Z,99151.78
2023-05-14T12:16:50.915Z,99144.13
2023-05-14T12:19:19.758Z,99137.91
2023-05-14T12:21:48.089Z,99155.16
2023-05-14T12:24:17.097Z,99149.09
2023-05-14T12:26:48.374Z,99148.25
2023-05-14T12:29:16.410Z,99160.97
2023-05-14T12:31:47.864Z,99156.66
2023-05-14T12:34:15.518Z,99143.63
2023-05-14T12:36:42.324Z,99148.06
2023-05-14T12:39:10.178Z,99144.72
2023-05-14T12:41:36.877Z,99147.78
2023-05-14T12:44:04.922Z,99140.09
2023-05-14T12:46:32.325Z,99138.25
2023-05-14T12:48:58.629Z,99133.59
2023-05-14T12:51:25.360Z,99138.94
2023-05-14T12:53:51.731Z,99125.41
2023-05-14T12:56:18.024Z,99133.56
2023-05-14T12:58:44.414Z,99135.25
2023-05-14T13:01:10.867Z,99123.06
2023-05-14T13:03:37.528Z,99118.84
2023-05-14T13:06:04.232Z,99121.19
2023-05-14T13:08:30.777Z,99111.38
2023-05-14T13:10:57.055Z,99103.16
2023-05-14T13:13:23.682Z,99112.38
2023-05-14T13:15:50.304Z,99100.00
2023-05-14T13:18:17.924Z,99111.69
2023-05-14T13:20:46.265Z,99107.47
2023-05-14T13:23:12.807Z,99089.09
2023-05-14T13:25:39.100Z,99080.84
2023-05-14T13:28:05.507Z,99081.47
2023-05-14T13:30:31.795Z,99079.50
2023-05-14T13:32:59.300Z,99084.31
2023-05-14T13:35:25.876Z,99075.19
2023-05-14T13:37:52.288Z,99065.44
2023-05-14T13:40:18.560Z,99068.00
2023-05-14T13:42:44.931Z,99067.03
2023-05-14T13:45:12.023Z,99064.78
2023-05-14T13:47:40.080Z,99064.47
2023-05-14T13:50:07.786Z,99063.50
2023-05-14T13:52:34.217Z,99061.78
2023-05-14T13:55:00.514Z,99060.94
2023-05-14T13:57:26.843Z,99058.59
2023-05-14T13:59:53.260Z,99066.41
2023-05-14T14:02:19.602Z,99057.78
2023-05-14T14:04:45.920Z,99060.47
2023-05-14T14:07:12.391Z,99048.97
2023-05-14T14:09:39.014Z,99051.13
2023-05-14T14:12:05.891Z,99049.69
2023-05-14T14:14:32.349Z,99057.25
2023-05-14T14:16:58.653Z,99050.56
2023-05-14T14:19:25.032Z,99056.81
2023-05-14T14:24:17.657Z,99044.19
2023-05-14T14:26:44.027Z,99041.50
2023-05-14T14:29:10.312Z,99045.06
2023-05-14T14:31:36.804Z,99041.75
2023-05-14T14:34:03.309Z,99041.22
2023-05-14T14:36:29.661Z,99040.34
2023-05-14T14:38:56.180Z,99024.34
2023-05-14T14:41:22.487Z,99021.97
2023-05-14T14:43:48.798Z,99024.97
2023-05-14T14:46:15.182Z,99021.91
2023-05-14T14:48:41.565Z,99008.03
2023-05-14T14:51:08.936Z,99021.34
2023-05-14T14:53:36.446Z,99013.97
2023-05-14T14:56:03.017Z,99023.72
2023-05-14T14:58:29.521Z,99021.25
2023-05-14T15:00:57.495Z,99016.03
2023-05-14T15:03:25.303Z,99024.03
2023-05-14T15:05:52.433Z,99017.88
2023-05-14T15:08:19.087Z,99023.66
2023-05-14T15:10:45.638Z,99010.63
2023-05-14T15:13:12.765Z,99015.66
2023-05-14T15:15:39.069Z,99006.97
2023-05-14T15:18:05.579Z,99005.72
2023-05-14T15:20:31.963Z,98996.63
2023-05-14T15:22:58.458Z,99002.34
2023-05-14T15:25:25.373Z,98996.59
2023-05-14T15:27:52.028Z,98987.38
2023-05-14T15:30:19.142Z,98989.25
2023-05-14T15:32:45.635Z,98986.22
2023-05-14T15:35:12.480Z,98993.50
2023-05-14T15:37:40.994Z,98998.63
2023-05-14T15:40:08.721Z,98996.03
2023-05-14T15:42:39.851Z,98997.91
2023-05-14T15:45:06.586Z,98986.97
2023-05-14T15:47:33.040Z,98981.44
2023-05-14T15:50:00.217Z,98990.72
2023-05-14T15:52:26.942Z,98990.50
2023-05-14T15:54:53.453Z,98980.22
2023-05-14T15:57:20.299Z,98975.69
2023-05-14T15:59:47.190Z,98972.44
2023-05-14T16:02:14.875Z,98978.38
2023-05-14T16:04:41.160Z,98972.66
2023-05-14T16:07:09.675Z,98983.44
2023-05-14T16:09:36.793Z,98976.63
2023-05-14T16:12:05.035Z,98984.97
2023-05-14T16:14:34.005Z,98988.88
2023-05-14T16:17:00.402Z,98970.88
2023-05-14T16:19:26.906Z,98972.84
2023-05-14T16:21:53.257Z,98980.88
2023-05-14T16:24:19.990Z,98985.09
2023-05-14T16:26:46.778Z,98984.91
2023-05-14T16:29:13.344Z,98969.91
2023-05-14T16:31:39.665Z,98978.78
2023-05-14T16:34:06.028Z,98971.28
2023-05-14T16:36:32.323Z,98979.97
2023-05-14T16:39:07.281Z,98975.44
2023-05-14T16:41:38.091Z,98978.78
2023-05-14T16:44:04.640Z,98981.97
2023-05-14T16:46:31.027Z,98976.78
2023-05-14T16:48:57.482Z,98979.63
2023-05-14T16:51:23.867Z,98986.94
2023-05-14T16:53:50.239Z,98980.88
2023-05-14T16:56:17.411Z,98976.56
2023-05-14T16:58:43.705Z,98977.34
2023-05-14T17:01:10.308Z,98971.94
2023-05-14T17:03:37.079Z,98980.41
2023-05-14T17:06:03.583Z,98975.63
2023-05-14T17:08:30.014Z,98978.13
2023-05-14T17:10:56.417Z,98981.94
2023-05-14T17:13:22.787Z,98990.75
2023-05-14T17:15:49.136Z,98991.72
2023-05-14T17:18:15.677Z,98982.03
2023-05-14T17:20:41.975Z,98997.13
2023-05-14T17:23:08.389Z,99002.25
2023-05-14T17:25:34.702Z,98997.56
2023-05-14T17:28:01.318Z,98997.66
2023-05-14T17:30:27.686Z,98997.75
2023-05-14T17:32:54.394Z,98992.66
2023-05-14T17:35:20.725Z,98994.72
2023-05-14T17:37:47.114Z,98994.78
2023-05-14T17:40:13.512Z,99001.44
2023-05-14T17:42:39.833Z,99000.31
2023-05-14T17:45:06.826Z,99014.63
2023-05-14T17:47:33.231Z,99007.31
2023-05-14T17:49:59.626Z,99016.59
2023-05-14T17:52:25.947Z,99022.78
2023-05-14T17:54:52.582Z,99026.28
2023-05-14T17:57:18.953Z,99030.47
2023-05-14T17:59:45.419Z,99034.06
2023-05-14T18:02:11.685Z,99044.53
2023-05-14T18:04:38.081Z,99021.31
2023-05-14T18:07:04.673Z,99018.88
2023-05-14T18:09:30.998Z,99049.22
2023-05-14T18:11:57.629Z,99055.38
2023-05-14T18:14:23.931Z,99050.75
2023-05-14T18:16:50.349Z,99055.31
2023-05-14T18:19:16.724Z,99060.09
2023-05-14T18:21:43.144Z,99065.00
2023-05-14T18:24:09.477Z,99051.59
2023-05-14T18:26:35.756Z,99052.00
2023-05-14T18:29:02.139Z,99045.16
2023-05-14T18:31:28.622Z,99057.59
2023-05-14T18:33:55.113Z,99031.84
2023-05-14T18:36:21.584Z,99039.28
2023-05-14T18:38:47.892Z,99039.06
2023-05-14T18:41:14.163Z,99014.59
2023-05-14T18:43:40.575Z,99019.25
2023-05-14T18:46:07.039Z,99030.94
2023-05-14T18:48:33.452Z,99038.94
2023-05-14T18:51:00.074Z,99039.75
2023-05-14T18:53:26.508Z,99031.03
2023-05-14T18:55:52.924Z,99035.91
2023-05-14T18:58:19.818Z,99040.78
2023-05-14T19:00:46.560Z,99045.13
2023-05-14T19:03:12.962Z,99041.47
2023-05-14T19:05:39.312Z,99051.91
2023-05-14T19:08:05.795Z,99056.78
2023-05-14T19:10:32.088Z,99053.81
2023-05-14T19:12:58.713Z,99053.34
2023-05-14T19:15:25.202Z,99055.53
2023-05-14T19:17:52.064Z,99073.94
2023-05-14T19:20:18.788Z,99074.06
2023-05-14T19:22:45.103Z,99069.91
2023-05-14T19:25:11.416Z,99075.31
2023-05-14T19:27:38.245Z,99078.28
2023-05-14T19:30:05.095Z,99079.25
2023-05-14T19:32:31.496Z,99081.75
2023-05-14T19:34:57.786Z,99068.91
2023-05-14T19:37:24.193Z,99070.34
2023-05-14T19:39:50.496Z,99074.06
2023-05-14T19:42:17.059Z,99064.47
2023-05-14T19:44:43.441Z,99068.06
2023-05-14T19:47:09.908Z,99063.31
2023-05-14T19:49:36.322Z,99070.97
2023-05-14T19:52:02.602Z,99068.03
2023-05-14T19:54:28.983Z,99053.78
2023-05-14T19:56:55.277Z,99055.13
2023-05-14T19:59:21.657Z,99066.78
2023-05-14T20:01:48.022Z,99068.72
2023-05-14T20:04:14.330Z,99067.16
2023-05-14T20:06:40.734Z,99057.72
2023-05-14T20:09:07.023Z,99077.69
2023-05-14T20:11:33.367Z,99072.91
2023-05-14T20:13:59.840Z,99064.22
2023-05-14T20:16:26.614Z,99065.34
2023-05-14T20:18:53.656Z,99070.75
2023-05-14T20:21:19.982Z,99057.91
2023-05-14T20:23:46.394Z,99073.41
2023-05-14T20:26:12.808Z,99081.09
2023-05-14T20:28:39.125Z,99079.75
2023-05-14T20:31:05.439Z,99078.69
2023-05-14T20:33:31.843Z,99081.66
2023-05-14T20:35:58.233Z,99064.09
2023-05-14T20:38:24.556Z,99071.75
2023-05-14T20:40:50.938Z,99063.84
2023-05-14T20:43:17.317Z,99062.94
2023-05-14T20:45:43.933Z,99052.88
2023-05-14T20:48:10.336Z,99059.31
2023-05-14T20:50:36.657Z,99060.31
2023-05-14T20:53:03.868Z,99054.03
2023-05-14T20:55:30.241Z,99057.91
2023-05-14T20:57:56.529Z,99056.66
2023-05-14T21:00:23.228Z,99056.66
2023-05-14T21:02:49.974Z,99054.16
2023-05-14T21:05:16.830Z,99048.97
2023-05-14T21:07:43.144Z,99043.94
2023-05-14T21:10:10.125Z,99050.81
2023-05-14T21:12:36.691Z,99050.31
2023-05-14T21:15:03.515Z,99027.13
2023-05-14T21:17:30.146Z,99040.94
2023-05-14T21:19:56.491Z,99034.22
2023-05-14T21:22:23.034Z,99033.97
2023-05-14T21:24:50.176Z,99031.09
2023-05-14T21:27:16.565Z,99021.13
2023-05-14T21:29:42.950Z,99028.72
2023-05-14T21:32:09.251Z,99022.03
2023-05-14T21:34:35.645Z,99029.94
2023-05-14T21:37:02.011Z,99023.81
2023-05-14T21:39:28.306Z,99017.19
2023-05-14T21:41:54.660Z,99022.16
2023-05-14T21:44:21.733Z,99012.16
2023-05-14T21:46:48.092Z,99013.28
2023-05-14T21:49:14.507Z,98998.13
2023-05-14T21:51:40.799Z,99008.06
2023-05-14T21:54:07.281Z,99004.47
2023-05-14T21:56:35.274Z,98994.78
2023-05-14T21:59:01.681Z,98989.25
2023-05-14T22:01:27.993Z,98981.69
2023-05-14T22:03:55.775Z,98984.59
2023-05-14T22:06:23.503Z,98996.03
2023-05-14T22:08:49.793Z,98974.38
2023-05-14T22:11:16.084Z,98950.41
2023-05-14T22:13:42.733Z,98962.91
2023-05-14T22:16:13.411Z,98957.84
2023-05-14T22:18:40.792Z,98952.84
2023-05-14T22:21:07.207Z,98966.06
2023-05-14T22:23:33.764Z,98961.94
2023-05-14T22:26:00.323Z,98959.78
2023-05-14T22:28:26.623Z,98961.09
2023-05-14T22:30:53.165Z,98945.00
2023-05-14T22:33:19.438Z,98957.75
2023-05-14T22:35:45.991Z,98949.13
2023-05-14T22:38:13.289Z,98963.41
2023-05-14T22:40:39.563Z,98958.09
2023-05-14T22:43:05.847Z,98961.72
2023-05-14T22:45:32.216Z,98938.69
2023-05-14T22:47:58.636Z,98957.25
2023-05-14T22:50:25.673Z,98956.19
2023-05-14T22:52:51.974Z,98940.94
2023-05-14T22:55:18.390Z,98952.34
2023-05-14T22:57:44.810Z,98946.06
2023-05-14T23:00:11.804Z,98951.09
2023-05-14T23:02:38.291Z,98955.06
2023-05-14T23:05:05.582Z,98952.34
2023-05-14T23:07:31.960Z,98946.00
2023-05-14T23:09:58.322Z,98946.94
2023-05-14T23:12:24.679Z,98943.84
2023-05-14T23:14:50.991Z,98931.34
2023-05-14T23:17:17.780Z,98948.47
2023-05-14T23:19:44.334Z,98931.59
2023-05-14T23:22:10.703Z,98934.81
2023-05-14T23:24:37.067Z,98946.34
2023-05-14T23:27:03.456Z,98936.50
2023-05-14T23:29:29.750Z,98940.94
2023-05-14T23:31:56.121Z,98936.63
2023-05-14T23:34:22.440Z,98945.16
2023-05-14T23:36:49.067Z,98939.50
2023-05-14T23:39:15.459Z,98937.25
2023-05-14T23:41:41.825Z,98928.72
2023-05-14T23:44:08.353Z,98934.22
2023-05-14T23:46:34.833Z,98939.50
2023-05-14T23:49:01.200Z,98928.72
2023-05-14T23:51:27.800Z,98942.63
2023-05-14T23:53:54.118Z,98907.75
2023-05-14T23:56:20.674Z,98908.13
2023-05-14T23:58:46.974Z,98937.50
